Time;durP1;ratioP1;P1;durP2;ratioP2;P2;SDS_P1;SDS_P2;PMS_P1;PMS_P2;Temp;Humidity;BMP_temperature;BMP_pressure;BME280_temperature;BME280_humidity;BME280_pressure;Samples;Min_cycle;Max_cycle;Signal;HPM_P1;HPM_P2
2022/09/07 00:01:15;;;;;;;;;1.00;1.00;;;;;;;;5075172;27;45407;-78
2022/09/07 00:03:40;;;;;;;;;1.00;1.00;;;;;;;;5068635;27;45825;-77
2022/09/07 00:06:07;;;;;;;;;2.00;2.00;;;;;;;;5072727;27;47142;-78
2022/09/07 00:08:32;;;;;;;;;2.00;0.00;;;;;;;;5071796;28;45284;-77
2022/09/07 00:10:59;;;;;;;;;3.00;1.00;;;;;;;;5073778;27;45271;-75
2022/09/07 00:13:25;;;;;;;;;0.67;0.67;;;;;;;;5068701;27;45340;-77
2022/09/07 00:15:51;;;;;;;;;0.00;0.00;;;;;;;;5066268;27;46128;-75
2022/09/07 00:18:16;;;;;;;;;1.33;1.00;;;;;;;;5075320;27;45466;-76
2022/09/07 00:20:42;;;;;;;;;0.00;0.00;;;;;;;;5075878;27;45337;-76
2022/09/07 00:23:07;;;;;;;;;0.33;0.00;;;;;;;;5076099;28;45374;-77
2022/09/07 00:25:36;;;;;;;;;1.00;1.00;;;;;;;;5075847;27;45343;-75
2022/09/07 00:28:01;;;;;;;;;1.00;1.00;;;;;;;;5076066;28;45369;-77
2022/09/07 00:30:27;;;;;;;;;0.00;0.00;;;;;;;;5075903;27;45448;-76
2022/09/07 00:32:52;;;;;;;;;1.00;1.00;;;;;;;;5075649;28;45439;-76
2022/09/07 00:35:17;;;;;;;;;1.00;0.67;;;;;;;;5075433;28;45397;-76
2022/09/07 00:37:42;;;;;;;;;3.33;3.00;;;;;;;;5075522;27;45435;-76
2022/09/07 00:40:07;;;;;;;;;0.67;0.00;;;;;;;;5075892;28;45624;-76
2022/09/07 00:42:33;;;;;;;;;0.67;0.67;;;;;;;;5075672;27;45407;-77
2022/09/07 00:45:06;;;;;;;;;0.00;0.00;;;;;;;;5075595;28;45932;-76
2022/09/07 00:47:45;;;;;;;;;0.00;0.00;;;;;;;;5075197;27;45379;-76
2022/09/07 00:50:33;;;;;;;;;2.00;1.00;;;;;;;;5075747;28;45293;-76
2022/09/07 00:53:08;;;;;;;;;1.00;1.00;;;;;;;;5053742;28;45524;-77
2022/09/07 00:55:33;;;;;;;;;0.00;0.00;;;;;;;;5066706;28;47223;-76
2022/09/07 00:57:59;;;;;;;;;0.67;0.67;;;;;;;;5075084;28;45379;-76
2022/09/07 01:00:24;;;;;;;;;0.00;0.00;;;;;;;;5075625;28;45402;-76
2022/09/07 01:02:52;;;;;;;;;0.00;0.00;;;;;;;;5074993;27;45289;-75
2022/09/07 01:05:22;;;;;;;;;1.00;1.00;;;;;;;;5075285;27;45296;-77
2022/09/07 01:07:48;;;;;;;;;0.00;0.00;;;;;;;;5075045;28;45502;-76
2022/09/07 01:10:13;;;;;;;;;1.67;0.33;;;;;;;;5075517;27;45449;-76
2022/09/07 01:12:38;;;;;;;;;1.00;1.00;;;;;;;;5075246;28;45614;-76
2022/09/07 01:15:04;;;;;;;;;0.00;0.00;;;;;;;;5077926;27;46918;-76
2022/09/07 01:17:41;;;;;;;;;0.00;0.00;;;;;;;;5078603;27;45368;-76
2022/09/07 01:20:09;;;;;;;;;1.00;1.00;;;;;;;;5079067;27;45367;-76
2022/09/07 01:22:40;;;;;;;;;1.00;1.00;;;;;;;;5078486;27;45388;-76
2022/09/07 01:25:13;;;;;;;;;1.00;1.00;;;;;;;;5078482;27;47017;-76
2022/09/07 01:27:41;;;;;;;;;0.00;0.00;;;;;;;;5078512;27;45408;-76
2022/09/07 01:30:08;;;;;;;;;0.00;0.00;;;;;;;;5078905;27;45396;-76
2022/09/07 01:32:49;;;;;;;;;1.67;1.00;;;;;;;;5077949;27;45579;-76
2022/09/07 01:35:21;;;;;;;;;1.00;1.00;;;;;;;;5078238;27;45431;-76
2022/09/07 01:38:03;;;;;;;;;0.00;0.00;;;;;;;;5078196;27;45514;-76
2022/09/07 01:40:32;;;;;;;;;1.00;1.00;;;;;;;;5078326;27;45400;-76
2022/09/07 01:43:01;;;;;;;;;0.00;0.00;;;;;;;;5078455;27;45455;-77
2022/09/07 01:45:30;;;;;;;;;0.67;0.67;;;;;;;;5077906;27;46205;-76
2022/09/07 01:47:57;;;;;;;;;1.00;1.00;;;;;;;;5073613;27;45410;-76
2022/09/07 01:50:26;;;;;;;;;0.00;0.00;;;;;;;;5050857;28;45462;-76
2022/09/07 01:52:51;;;;;;;;;0.00;0.00;;;;;;;;5078242;27;45420;-76
2022/09/07 01:55:30;;;;;;;;;0.00;0.00;;;;;;;;5077651;27;45439;-76
2022/09/07 01:57:59;;;;;;;;;0.00;0.00;;;;;;;;5078043;27;45324;-75
2022/09/07 02:00:24;;;;;;;;;0.00;0.00;;;;;;;;5077951;27;45367;-76
2022/09/07 02:02:51;;;;;;;;;0.67;0.67;;;;;;;;5077949;27;45337;-73
2022/09/07 02:05:21;;;;;;;;;0.00;0.00;;;;;;;;5078074;27;47383;-77
2022/09/07 02:07:49;;;;;;;;;0.00;0.00;;;;;;;;5077921;27;45394;-76
2022/09/07 02:10:25;;;;;;;;;0.00;0.00;;;;;;;;5078207;27;45479;-77
2022/09/07 02:13:00;;;;;;;;;0.00;0.00;;;;;;;;5078187;27;45342;-76
2022/09/07 02:15:40;;;;;;;;;1.00;1.00;;;;;;;;5064258;27;47073;-76
2022/09/07 02:18:06;;;;;;;;;0.00;0.00;;;;;;;;5077863;28;45454;-77
2022/09/07 02:20:35;;;;;;;;;0.33;0.33;;;;;;;;5077651;27;45416;-75
2022/09/07 02:23:03;;;;;;;;;0.00;0.00;;;;;;;;5077893;27;45359;-76
2022/09/07 02:25:33;;;;;;;;;1.00;1.00;;;;;;;;5076228;27;45410;-76
2022/09/07 02:28:06;;;;;;;;;1.00;1.00;;;;;;;;5077490;27;45410;-75
2022/09/07 02:30:31;;;;;;;;;0.00;0.00;;;;;;;;5077597;27;46115;-75
2022/09/07 02:32:57;;;;;;;;;1.00;1.00;;;;;;;;5077813;27;45355;-75
2022/09/07 02:35:22;;;;;;;;;0.00;0.00;;;;;;;;5077467;27;45930;-76
2022/09/07 02:37:47;;;;;;;;;2.00;0.00;;;;;;;;5077245;28;45495;-76
2022/09/07 02:40:13;;;;;;;;;0.67;0.67;;;;;;;;5077495;27;45494;-76
2022/09/07 02:42:40;;;;;;;;;0.33;0.00;;;;;;;;5077302;27;45577;-75
2022/09/07 02:45:07;;;;;;;;;0.67;0.67;;;;;;;;5077283;27;45473;-76
2022/09/07 02:47:44;;;;;;;;;1.00;1.00;;;;;;;;5059103;28;45418;-76
2022/09/07 02:50:24;;;;;;;;;0.00;0.00;;;;;;;;5075821;27;45502;-76
2022/09/07 02:53:08;;;;;;;;;0.33;0.33;;;;;;;;5069727;27;45364;-76
2022/09/07 02:55:39;;;;;;;;;0.00;0.00;;;;;;;;5087943;27;46270;-76
2022/09/07 02:58:11;;;;;;;;;1.00;0.00;;;;;;;;5097119;27;45296;-76
2022/09/07 03:00:49;;;;;;;;;0.00;0.00;;;;;;;;5096852;27;45374;-76
2022/09/07 03:03:33;;;;;;;;;0.00;0.00;;;;;;;;5085644;27;46155;-76
2022/09/07 03:06:00;;;;;;;;;1.00;1.00;;;;;;;;5097124;27;46172;-76
2022/09/07 03:08:29;;;;;;;;;2.00;0.00;;;;;;;;5097562;27;46054;-76
2022/09/07 03:10:56;;;;;;;;;0.00;0.00;;;;;;;;5097626;27;45351;-76
2022/09/07 03:13:22;;;;;;;;;2.00;0.00;;;;;;;;5097134;27;45527;-75
2022/09/07 03:15:48;;;;;;;;;1.00;1.00;;;;;;;;5097240;27;45737;-76
2022/09/07 03:18:13;;;;;;;;;1.00;1.00;;;;;;;;5085009;27;45326;-76
2022/09/07 03:20:38;;;;;;;;;1.00;1.00;;;;;;;;5076895;27;45543;-76
2022/09/07 03:23:03;;;;;;;;;0.00;0.00;;;;;;;;5077043;28;45319;-77
2022/09/07 03:25:29;;;;;;;;;0.33;0.33;;;;;;;;5076574;27;46155;-76
2022/09/07 03:27:54;;;;;;;;;0.00;0.00;;;;;;;;5058010;28;45300;-76
2022/09/07 03:30:19;;;;;;;;;1.00;1.00;;;;;;;;5076945;28;45336;-75
2022/09/07 03:32:44;;;;;;;;;0.00;0.00;;;;;;;;5076769;27;45379;-76
2022/09/07 03:35:10;;;;;;;;;0.00;0.00;;;;;;;;5076551;27;47175;-75
2022/09/07 03:37:36;;;;;;;;;0.00;0.00;;;;;;;;5075961;27;45400;-75
2022/09/07 03:40:01;;;;;;;;;1.00;1.00;;;;;;;;5076815;27;45392;-75
2022/09/07 03:42:27;;;;;;;;;0.00;0.00;;;;;;;;5076237;27;45346;-75
2022/09/07 03:44:52;;;;;;;;;2.33;0.00;;;;;;;;5076597;28;47004;-75
2022/09/07 03:47:17;;;;;;;;;0.33;0.00;;;;;;;;5076463;27;45292;-75
2022/09/07 03:49:42;;;;;;;;;0.00;0.00;;;;;;;;5076366;27;45529;-75
2022/09/07 03:52:08;;;;;;;;;0.00;0.00;;;;;;;;5076810;28;45264;-76
2022/09/07 03:54:33;;;;;;;;;0.00;0.00;;;;;;;;5075951;27;45410;-75
2022/09/07 03:56:58;;;;;;;;;0.00;0.00;;;;;;;;5076080;27;45390;-75
2022/09/07 03:59:23;;;;;;;;;0.00;0.00;;;;;;;;5076291;27;45443;-75
2022/09/07 04:01:48;;;;;;;;;0.00;0.00;;;;;;;;5076307;28;45411;-75
2022/09/07 04:04:14;;;;;;;;;0.00;0.00;;;;;;;;5076118;27;46904;-75
2022/09/07 04:06:39;;;;;;;;;2.33;0.00;;;;;;;;5076105;28;45350;-75
2022/09/07 04:09:05;;;;;;;;;1.00;1.00;;;;;;;;5058161;28;45373;-75
2022/09/07 04:11:31;;;;;;;;;0.00;0.00;;;;;;;;5075969;27;45434;-75
2022/09/07 04:13:56;;;;;;;;;2.33;0.33;;;;;;;;5057603;28;47058;-75
2022/09/07 04:16:23;;;;;;;;;0.00;0.00;;;;;;;;5075829;27;45432;-75
2022/09/07 04:18:49;;;;;;;;;0.00;0.00;;;;;;;;5076065;27;45274;-75
2022/09/07 04:21:14;;;;;;;;;0.00;0.00;;;;;;;;5076065;27;45336;-75
2022/09/07 04:23:40;;;;;;;;;0.00;0.00;;;;;;;;5057279;27;46238;-75
2022/09/07 04:26:06;;;;;;;;;1.00;1.00;;;;;;;;5075589;27;45410;-75
2022/09/07 04:28:31;;;;;;;;;0.67;0.00;;;;;;;;5075940;28;45456;-75
2022/09/07 04:31:00;;;;;;;;;0.67;0.67;;;;;;;;5075873;27;45327;-74
2022/09/07 04:33:26;;;;;;;;;2.00;0.00;;;;;;;;5075993;28;46210;-75
2022/09/07 04:35:51;;;;;;;;;0.67;0.67;;;;;;;;5075358;27;45381;-75
2022/09/07 04:38:16;;;;;;;;;0.33;0.33;;;;;;;;5075889;28;45344;-76
2022/09/07 04:40:41;;;;;;;;;0.00;0.00;;;;;;;;5075558;27;45511;-75
2022/09/07 04:43:08;;;;;;;;;0.33;0.33;;;;;;;;5075626;28;46025;-74
2022/09/07 04:45:36;;;;;;;;;1.00;1.00;;;;;;;;5075720;28;45801;-75
2022/09/07 04:48:01;;;;;;;;;0.00;0.00;;;;;;;;5075663;27;45448;-75
2022/09/07 04:50:26;;;;;;;;;0.67;0.00;;;;;;;;5078751;27;45327;-75
2022/09/07 04:52:52;;;;;;;;;1.00;0.00;;;;;;;;5079123;27;45514;-75
2022/09/07 04:55:17;;;;;;;;;0.00;0.00;;;;;;;;5078674;27;45271;-75
2022/09/07 04:57:42;;;;;;;;;2.00;1.00;;;;;;;;5078937;27;45414;-75
2022/09/07 05:00:09;;;;;;;;;0.00;0.00;;;;;;;;5079447;27;45293;-74
2022/09/07 05:02:36;;;;;;;;;0.00;0.00;;;;;;;;5078691;27;46224;-75
2022/09/07 05:05:01;;;;;;;;;1.00;1.00;;;;;;;;5078931;27;45274;-75
2022/09/07 05:07:27;;;;;;;;;0.00;0.00;;;;;;;;5079072;27;45379;-75
2022/09/07 05:09:52;;;;;;;;;1.00;1.00;;;;;;;;5078545;27;45415;-75
2022/09/07 05:12:17;;;;;;;;;1.67;0.33;;;;;;;;5078831;27;46239;-74
2022/09/07 05:14:42;;;;;;;;;0.00;0.00;;;;;;;;5078604;27;45375;-75
2022/09/07 05:17:07;;;;;;;;;0.00;0.00;;;;;;;;5078694;27;45256;-75
2022/09/07 05:19:33;;;;;;;;;0.00;0.00;;;;;;;;5079133;27;45368;-76
2022/09/07 05:21:58;;;;;;;;;0.00;0.00;;;;;;;;5078387;27;46466;-76
2022/09/07 05:24:25;;;;;;;;;0.00;0.00;;;;;;;;5078174;27;45291;-75
2022/09/07 05:26:50;;;;;;;;;0.00;0.00;;;;;;;;5078849;27;45351;-75
2022/09/07 05:29:15;;;;;;;;;0.00;0.00;;;;;;;;5078419;27;45749;-75
2022/09/07 05:31:40;;;;;;;;;0.00;0.00;;;;;;;;5078694;27;46161;-75
2022/09/07 05:34:06;;;;;;;;;2.00;0.00;;;;;;;;5078279;27;45304;-74
2022/09/07 05:36:31;;;;;;;;;0.33;0.33;;;;;;;;5078515;27;45444;-75
2022/09/07 05:38:58;;;;;;;;;0.00;0.00;;;;;;;;5078309;27;45480;-75
2022/09/07 05:41:24;;;;;;;;;0.33;0.33;;;;;;;;5078487;27;45396;-75
2022/09/07 05:43:50;;;;;;;;;0.33;0.33;;;;;;;;5078254;27;45489;-74
2022/09/07 05:46:15;;;;;;;;;0.00;0.00;;;;;;;;5078413;27;45293;-75
2022/09/07 05:48:41;;;;;;;;;0.00;0.00;;;;;;;;5077885;27;45382;-75
2022/09/07 05:51:06;;;;;;;;;1.00;1.00;;;;;;;;5078082;27;46158;-75
2022/09/07 05:53:36;;;;;;;;;1.00;1.00;;;;;;;;5077768;27;45274;-74
2022/09/07 05:56:01;;;;;;;;;0.00;0.00;;;;;;;;5078046;27;45300;-75
2022/09/07 05:58:27;;;;;;;;;2.00;0.00;;;;;;;;5077935;27;45409;-75
2022/09/07 06:00:56;;;;;;;;;0.00;0.00;;;;;;;;5077848;27;46250;-74
2022/09/07 06:03:21;;;;;;;;;0.33;0.33;;;;;;;;5077817;27;45370;-75
2022/09/07 06:05:46;;;;;;;;;0.00;0.00;;;;;;;;5077782;27;45355;-76
2022/09/07 06:08:12;;;;;;;;;0.00;0.00;;;;;;;;5077975;27;45318;-75
2022/09/07 06:10:37;;;;;;;;;0.67;0.00;;;;;;;;5078096;27;46017;-75
2022/09/07 06:13:03;;;;;;;;;0.33;0.33;;;;;;;;5077738;27;45189;-75
2022/09/07 06:15:30;;;;;;;;;0.67;0.67;;;;;;;;5078092;27;45237;-74
2022/09/07 06:17:55;;;;;;;;;0.00;0.00;;;;;;;;5077695;27;45486;-75
2022/09/07 06:20:20;;;;;;;;;0.00;0.00;;;;;;;;5077156;27;45495;-75
2022/09/07 06:22:46;;;;;;;;;0.33;0.33;;;;;;;;5077977;27;45360;-75
2022/09/07 06:25:11;;;;;;;;;0.67;0.67;;;;;;;;5077848;28;45406;-74
2022/09/07 06:27:36;;;;;;;;;1.67;1.00;;;;;;;;5077672;27;45358;-75
2022/09/07 06:30:01;;;;;;;;;0.67;0.67;;;;;;;;5077794;27;46263;-75
2022/09/07 06:32:26;;;;;;;;;0.00;0.00;;;;;;;;5077376;27;45410;-75
2022/09/07 06:34:52;;;;;;;;;0.00;0.00;;;;;;;;5077371;27;45395;-74
2022/09/07 06:37:17;;;;;;;;;0.00;0.00;;;;;;;;5077201;27;45419;-75
2022/09/07 06:39:42;;;;;;;;;0.00;0.00;;;;;;;;5077374;27;46260;-76
2022/09/07 06:42:07;;;;;;;;;0.00;0.00;;;;;;;;5077673;27;45391;-74
2022/09/07 06:44:33;;;;;;;;;0.00;0.00;;;;;;;;5077499;27;45449;-75
2022/09/07 06:46:58;;;;;;;;;1.00;1.00;;;;;;;;5077548;27;45423;-76
2022/09/07 06:49:24;;;;;;;;;1.00;1.00;;;;;;;;5076965;27;45419;-75
2022/09/07 06:51:49;;;;;;;;;1.00;1.00;;;;;;;;5077379;28;45400;-75
2022/09/07 06:54:14;;;;;;;;;1.00;1.00;;;;;;;;5076616;27;45669;-75
2022/09/07 06:56:39;;;;;;;;;2.00;1.50;;;;;;;;5077329;28;45468;-75
2022/09/07 06:59:04;;;;;;;;;1.00;0.00;;;;;;;;5076965;27;46217;-75
2022/09/07 07:01:32;;;;;;;;;0.33;0.00;;;;;;;;5077227;27;45394;-74
2022/09/07 07:03:57;;;;;;;;;2.00;0.67;;;;;;;;5076972;27;45320;-74
2022/09/07 07:06:22;;;;;;;;;0.33;0.33;;;;;;;;5076573;28;45483;-75
2022/09/07 07:08:51;;;;;;;;;0.00;0.00;;;;;;;;5077119;27;47139;-75
2022/09/07 07:11:16;;;;;;;;;1.00;1.00;;;;;;;;5076150;27;45357;-76
2022/09/07 07:13:43;;;;;;;;;0.00;0.00;;;;;;;;5076925;27;45446;-75
2022/09/07 07:16:12;;;;;;;;;0.00;0.00;;;;;;;;5077201;27;45441;-75
2022/09/07 07:18:38;;;;;;;;;2.00;0.00;;;;;;;;5076180;27;46095;-74
2022/09/07 07:21:04;;;;;;;;;0.00;0.00;;;;;;;;5076848;27;45354;-75
2022/09/07 07:23:29;;;;;;;;;1.00;1.00;;;;;;;;5076954;27;45378;-75
2022/09/07 07:25:55;;;;;;;;;0.67;0.67;;;;;;;;5058514;28;45455;-75
2022/09/07 07:28:22;;;;;;;;;0.33;0.33;;;;;;;;5074209;28;47246;-75
2022/09/07 07:30:53;;;;;;;;;1.00;1.00;;;;;;;;5076392;27;45391;-75
2022/09/07 07:33:18;;;;;;;;;1.00;1.00;;;;;;;;5075800;27;45471;-74
2022/09/07 07:35:43;;;;;;;;;2.00;0.67;;;;;;;;5076196;28;45373;-74
2022/09/07 07:38:08;;;;;;;;;0.00;0.00;;;;;;;;5076402;28;47261;-75
2022/09/07 07:40:33;;;;;;;;;0.33;0.33;;;;;;;;5058150;28;45631;-74
2022/09/07 07:42:59;;;;;;;;;2.00;0.00;;;;;;;;5076330;28;45274;-74
2022/09/07 07:45:24;;;;;;;;;3.33;1.00;;;;;;;;5076536;28;45347;-75
2022/09/07 07:47:50;;;;;;;;;0.00;0.00;;;;;;;;5075833;27;45471;-75
2022/09/07 07:50:15;;;;;;;;;2.00;2.00;;;;;;;;5076221;28;45366;-74
2022/09/07 07:52:40;;;;;;;;;1.00;1.00;;;;;;;;5076339;27;45629;-74
2022/09/07 07:55:06;;;;;;;;;2.00;0.00;;;;;;;;5076144;27;45332;-75
2022/09/07 07:57:31;;;;;;;;;0.00;0.00;;;;;;;;5076075;27;46120;-75
2022/09/07 07:59:57;;;;;;;;;1.00;1.00;;;;;;;;5076047;27;45481;-74
2022/09/07 08:02:22;;;;;;;;;1.00;1.00;;;;;;;;5075384;27;45450;-74
2022/09/07 08:04:48;;;;;;;;;0.00;0.00;;;;;;;;5076058;27;45372;-74
2022/09/07 08:07:14;;;;;;;;;0.00;0.00;;;;;;;;5075746;28;45442;-75
2022/09/07 08:09:40;;;;;;;;;1.67;0.00;;;;;;;;5075956;27;45440;-73
2022/09/07 08:12:06;;;;;;;;;0.67;0.00;;;;;;;;5076178;28;45384;-75
2022/09/07 08:14:31;;;;;;;;;0.00;0.00;;;;;;;;5075621;28;45356;-74
2022/09/07 08:16:56;;;;;;;;;1.00;0.00;;;;;;;;5074983;27;46141;-74
2022/09/07 08:19:21;;;;;;;;;0.00;0.00;;;;;;;;5076134;28;45465;-74
2022/09/07 08:21:47;;;;;;;;;1.00;1.00;;;;;;;;5075954;28;45265;-75
2022/09/07 08:24:12;;;;;;;;;0.00;0.00;;;;;;;;5074712;27;45355;-75
2022/09/07 08:26:37;;;;;;;;;0.00;0.00;;;;;;;;5075570;28;46176;-74
2022/09/07 08:29:02;;;;;;;;;0.00;0.00;;;;;;;;5075654;27;45268;-74
2022/09/07 08:31:27;;;;;;;;;0.67;0.67;;;;;;;;5075897;27;45330;-74
2022/09/07 08:33:52;;;;;;;;;0.00;0.00;;;;;;;;5075501;27;45433;-74
2022/09/07 08:36:19;;;;;;;;;0.00;0.00;;;;;;;;5075540;28;45440;-74
2022/09/07 08:38:44;;;;;;;;;0.00;0.00;;;;;;;;5075568;27;45332;-75
2022/09/07 08:41:25;;;;;;;;;0.00;0.00;;;;;;;;5075433;27;45448;-74
2022/09/07 08:44:08;;;;;;;;;0.67;0.67;;;;;;;;5075589;28;45363;-75
2022/09/07 08:46:34;;;;;;;;;0.00;0.00;;;;;;;;5062158;28;45433;-74
2022/09/07 08:49:00;;;;;;;;;0.00;0.00;;;;;;;;5075828;28;45415;-74
2022/09/07 08:51:43;;;;;;;;;0.00;0.00;;;;;;;;5075745;27;45327;-74
2022/09/07 08:54:12;;;;;;;;;0.00;0.00;;;;;;;;5075357;27;45445;-74
2022/09/07 08:56:41;;;;;;;;;0.33;0.33;;;;;;;;5061135;28;45376;-75
2022/09/07 08:59:20;;;;;;;;;0.67;0.33;;;;;;;;5075401;28;45634;-75
2022/09/07 09:01:45;;;;;;;;;0.00;0.00;;;;;;;;5074715;28;45375;-75
2022/09/07 09:04:14;;;;;;;;;0.00;0.00;;;;;;;;5075215;27;45424;-74
2022/09/07 09:07:03;;;;;;;;;0.00;0.00;;;;;;;;5055603;28;47105;-75
2022/09/07 09:09:34;;;;;;;;;0.00;0.00;;;;;;;;5066530;27;45316;-74
2022/09/07 09:12:18;;;;;;;;;0.00;0.00;;;;;;;;5075191;28;45471;-74
2022/09/07 09:15:08;;;;;;;;;2.00;2.00;;;;;;;;5074448;28;45268;-74
2022/09/07 09:17:38;;;;;;;;;1.00;0.00;;;;;;;;5074645;28;46955;-74
2022/09/07 09:20:39;;;;;;;;;0.00;0.00;;;;;;;;5075022;28;45229;-75
2022/09/07 09:23:11;;;;;;;;;1.00;1.00;;;;;;;;4992654;28;45363;-74
2022/09/07 09:25:38;;;;;;;;;1.00;0.00;;;;;;;;4992550;28;45434;-74
2022/09/07 09:28:03;;;;;;;;;1.00;0.00;;;;;;;;4992480;28;47587;-75
2022/09/07 09:30:30;;;;;;;;;0.33;0.33;;;;;;;;4991931;28;45458;-75
2022/09/07 09:33:15;;;;;;;;;1.00;1.00;;;;;;;;4992555;28;45909;-73
2022/09/07 09:35:41;;;;;;;;;1.00;0.67;;;;;;;;4994337;28;45298;-74
2022/09/07 09:38:27;;;;;;;;;0.00;0.00;;;;;;;;4979353;28;46055;-75
2022/09/07 09:40:53;;;;;;;;;0.00;0.00;;;;;;;;4995745;28;45333;-74
2022/09/07 09:43:23;;;;;;;;;0.67;0.33;;;;;;;;4995211;28;45815;-74
2022/09/07 09:45:53;;;;;;;;;1.33;0.00;;;;;;;;4995629;28;45532;-74
2022/09/07 09:48:21;;;;;;;;;0.00;0.00;;;;;;;;4995470;28;46112;-74
2022/09/07 09:50:48;;;;;;;;;0.67;0.67;;;;;;;;4995514;28;45476;-75
2022/09/07 09:53:40;;;;;;;;;3.67;2.00;;;;;;;;4995439;28;45439;-74
2022/09/07 09:56:05;;;;;;;;;0.00;0.00;;;;;;;;5000015;27;45396;-75
2022/09/07 09:58:32;;;;;;;;;1.00;1.00;;;;;;;;5077445;27;45380;-75
2022/09/07 10:01:00;;;;;;;;;1.00;1.00;;;;;;;;5077873;27;45346;-74
2022/09/07 10:03:26;;;;;;;;;0.33;0.33;;;;;;;;5077702;27;45361;-74
2022/09/07 10:05:52;;;;;;;;;0.00;0.00;;;;;;;;5077800;27;45276;-74
2022/09/07 10:08:23;;;;;;;;;0.00;0.00;;;;;;;;5077631;27;47116;-75
2022/09/07 10:10:49;;;;;;;;;0.00;0.00;;;;;;;;5077993;27;45700;-74
2022/09/07 10:13:19;;;;;;;;;0.33;0.33;;;;;;;;5077349;27;45382;-74
2022/09/07 10:15:49;;;;;;;;;1.00;1.00;;;;;;;;5077944;27;45554;-74
2022/09/07 10:18:17;;;;;;;;;0.00;0.00;;;;;;;;5077599;27;46015;-74
2022/09/07 10:20:42;;;;;;;;;0.00;0.00;;;;;;;;5077611;27;45455;-74
2022/09/07 10:23:18;;;;;;;;;1.00;0.00;;;;;;;;5077701;27;45467;-74
2022/09/07 10:25:43;;;;;;;;;0.00;0.00;;;;;;;;5077831;27;45433;-75
2022/09/07 10:28:17;;;;;;;;;3.00;1.00;;;;;;;;5077150;27;46324;-75
2022/09/07 10:30:45;;;;;;;;;0.67;0.33;;;;;;;;5077605;27;45359;-74
2022/09/07 10:33:43;;;;;;;;;0.33;0.33;;;;;;;;5077453;27;45416;-74
2022/09/07 10:36:14;;;;;;;;;1.00;0.33;;;;;;;;5014730;28;45368;-74
2022/09/07 10:38:44;;;;;;;;;2.67;0.00;;;;;;;;5014316;28;45348;-75
2022/09/07 10:41:10;;;;;;;;;3.00;0.00;;;;;;;;5014632;28;45413;-74
2022/09/07 10:43:42;;;;;;;;;1.00;0.00;;;;;;;;5014409;28;45560;-75
2022/09/07 10:46:23;;;;;;;;;0.33;0.33;;;;;;;;5013902;28;45557;-74
2022/09/07 10:49:02;;;;;;;;;2.00;0.00;;;;;;;;5014825;28;45596;-74
2022/09/07 10:51:33;;;;;;;;;0.00;0.00;;;;;;;;5014490;28;45636;-74
2022/09/07 10:53:58;;;;;;;;;1.67;0.00;;;;;;;;5014387;28;45502;-75
2022/09/07 10:56:32;;;;;;;;;1.00;1.00;;;;;;;;5014389;28;45588;-75
2022/09/07 10:58:57;;;;;;;;;1.00;1.00;;;;;;;;5014327;28;45464;-74
2022/09/07 11:01:40;;;;;;;;;1.00;1.00;;;;;;;;5014545;28;45494;-74
2022/09/07 11:04:20;;;;;;;;;1.00;1.00;;;;;;;;5044865;28;45538;-74
2022/09/07 11:06:51;;;;;;;;;0.33;0.33;;;;;;;;5053444;28;45347;-77
2022/09/07 11:09:54;;;;;;;;;2.00;0.00;;;;;;;;5061797;28;46337;-76
2022/09/07 11:12:23;;;;;;;;;1.33;0.00;;;;;;;;5058337;28;45472;-76
2022/09/07 11:14:51;;;;;;;;;1.00;1.00;;;;;;;;5074790;28;45368;-75
2022/09/07 11:17:19;;;;;;;;;3.00;0.00;;;;;;;;5070417;28;45614;-76
2022/09/07 11:20:13;;;;;;;;;1.00;1.00;;;;;;;;5054125;28;46153;-76
2022/09/07 11:22:42;;;;;;;;;1.00;1.00;;;;;;;;5053901;28;45477;-76
2022/09/07 11:25:16;;;;;;;;;1.00;0.00;;;;;;;;5054051;28;45395;-75
2022/09/07 11:27:46;;;;;;;;;0.00;0.00;;;;;;;;5053948;28;45464;-75
2022/09/07 11:30:21;;;;;;;;;1.00;0.00;;;;;;;;5054207;28;47132;-73
2022/09/07 11:32:53;;;;;;;;;0.00;0.00;;;;;;;;5053910;28;45436;-75
2022/09/07 11:35:24;;;;;;;;;1.00;1.00;;;;;;;;5053754;28;45421;-75
2022/09/07 11:37:58;;;;;;;;;0.33;0.33;;;;;;;;5057869;28;45518;-76
2022/09/07 11:40:28;;;;;;;;;0.00;0.00;;;;;;;;5073614;28;47412;-75
2022/09/07 11:43:12;;;;;;;;;1.00;1.00;;;;;;;;5088156;27;45381;-76
2022/09/07 11:45:40;;;;;;;;;0.33;0.00;;;;;;;;5097519;27;45264;-75
2022/09/07 11:48:12;;;;;;;;;0.00;0.00;;;;;;;;5110397;27;45398;-76
2022/09/07 11:50:45;;;;;;;;;0.00;0.00;;;;;;;;5096661;27;46285;-76
2022/09/07 11:53:21;;;;;;;;;0.33;0.33;;;;;;;;5086200;27;45496;-77
2022/09/07 11:55:49;;;;;;;;;0.00;0.00;;;;;;;;5110868;27;45350;-76
2022/09/07 11:58:30;;;;;;;;;1.00;1.00;;;;;;;;5089031;27;45263;-76
2022/09/07 12:01:07;;;;;;;;;0.00;0.00;;;;;;;;5107119;27;46281;-76
2022/09/07 12:03:36;;;;;;;;;0.67;0.00;;;;;;;;5085380;27;45352;-76
2022/09/07 12:06:28;;;;;;;;;1.00;1.00;;;;;;;;5075865;27;45391;-76
2022/09/07 12:09:15;;;;;;;;;1.00;1.00;;;;;;;;5012722;28;45444;-77
2022/09/07 12:11:59;;;;;;;;;0.67;0.67;;;;;;;;5017866;28;46327;-77
2022/09/07 12:14:40;;;;;;;;;2.00;0.00;;;;;;;;5019974;28;45600;-76
2022/09/07 12:17:14;;;;;;;;;2.00;1.00;;;;;;;;5020204;28;45384;-76
2022/09/07 12:19:40;;;;;;;;;0.67;0.67;;;;;;;;5033166;28;45409;-76
2022/09/07 12:22:17;;;;;;;;;0.00;0.00;;;;;;;;5033099;28;47168;-76
2022/09/07 12:24:42;;;;;;;;;1.00;1.00;;;;;;;;5032560;28;45282;-77
2022/09/07 12:27:27;;;;;;;;;1.00;1.00;;;;;;;;5032882;28;45364;-77
2022/09/07 12:29:55;;;;;;;;;2.00;0.00;;;;;;;;5032202;28;45451;-76
2022/09/07 12:32:39;;;;;;;;;0.00;0.00;;;;;;;;5032744;28;46236;-77
2022/09/07 12:35:24;;;;;;;;;0.00;0.00;;;;;;;;5018431;28;45323;-76
2022/09/07 12:37:50;;;;;;;;;2.00;0.00;;;;;;;;5021324;28;45478;-74
2022/09/07 12:40:33;;;;;;;;;3.67;1.00;;;;;;;;5032695;28;45356;-77
2022/09/07 12:43:13;;;;;;;;;0.67;0.33;;;;;;;;5032597;28;46136;-76
2022/09/07 12:45:38;;;;;;;;;0.33;0.33;;;;;;;;5062120;27;45364;-76
2022/09/07 12:48:15;;;;;;;;;1.33;1.00;;;;;;;;5095836;27;45391;-76
2022/09/07 12:50:57;;;;;;;;;1.00;1.00;;;;;;;;5095891;27;45419;-76
2022/09/07 12:53:30;;;;;;;;;0.00;0.00;;;;;;;;5073471;28;48292;-77
2022/09/07 12:56:14;;;;;;;;;1.00;1.00;;;;;;;;5093180;27;45337;-76
2022/09/07 12:58:45;;;;;;;;;1.00;1.00;;;;;;;;5095772;27;45370;-76
2022/09/07 13:01:28;;;;;;;;;1.00;1.00;;;;;;;;5095636;27;45300;-76
2022/09/07 13:04:12;;;;;;;;;1.00;1.00;;;;;;;;5095162;27;47177;-76
2022/09/07 13:06:56;;;;;;;;;0.00;0.00;;;;;;;;5070220;27;45409;-76
2022/09/07 13:09:32;;;;;;;;;1.00;1.00;;;;;;;;5096180;27;45450;-76
2022/09/07 13:11:58;;;;;;;;;0.00;0.00;;;;;;;;5099253;27;45525;-77
2022/09/07 13:14:25;;;;;;;;;1.00;1.00;;;;;;;;5098805;27;45371;-77
2022/09/07 13:17:10;;;;;;;;;0.00;0.00;;;;;;;;5098910;27;45381;-76
2022/09/07 13:19:44;;;;;;;;;2.67;0.00;;;;;;;;5080812;27;45456;-77
2022/09/07 13:22:28;;;;;;;;;1.00;1.00;;;;;;;;5098918;27;45538;-76
2022/09/07 13:24:54;;;;;;;;;1.00;0.00;;;;;;;;5098728;27;46344;-76
2022/09/07 13:27:28;;;;;;;;;0.33;0.33;;;;;;;;5098724;27;45378;-75
2022/09/07 13:29:56;;;;;;;;;0.67;0.33;;;;;;;;5098915;27;45516;-76
2022/09/07 13:32:31;;;;;;;;;3.00;0.00;;;;;;;;5098939;27;45368;-76
2022/09/07 13:34:56;;;;;;;;;0.00;0.00;;;;;;;;5081214;27;46892;-76
2022/09/07 13:37:22;;;;;;;;;1.67;0.33;;;;;;;;5086768;27;45441;-76
2022/09/07 13:39:48;;;;;;;;;2.00;0.33;;;;;;;;5098971;27;45367;-76
2022/09/07 13:42:18;;;;;;;;;0.33;0.33;;;;;;;;5098823;27;45461;-76
2022/09/07 13:44:50;;;;;;;;;0.00;0.00;;;;;;;;5098578;27;45442;-75
2022/09/07 13:47:28;;;;;;;;;0.00;0.00;;;;;;;;5098298;27;45290;-75
2022/09/07 13:50:10;;;;;;;;;0.00;0.00;;;;;;;;5098330;27;45670;-76
2022/09/07 13:52:36;;;;;;;;;1.00;1.00;;;;;;;;5098183;27;45360;-76
2022/09/07 13:55:10;;;;;;;;;1.00;0.00;;;;;;;;5080874;27;46029;-76
2022/09/07 13:57:41;;;;;;;;;0.00;0.00;;;;;;;;5092412;27;45321;-75
2022/09/07 14:00:11;;;;;;;;;0.00;0.00;;;;;;;;5088459;27;45304;-76
2022/09/07 14:02:38;;;;;;;;;0.00;0.00;;;;;;;;5097956;27;45680;-75
2022/09/07 14:05:05;;;;;;;;;1.67;0.67;;;;;;;;5097870;27;46570;-76
2022/09/07 14:07:30;;;;;;;;;0.00;0.00;;;;;;;;5098420;27;45406;-76
2022/09/07 14:10:08;;;;;;;;;2.00;0.00;;;;;;;;5091330;27;45372;-75
2022/09/07 14:12:40;;;;;;;;;1.00;1.00;;;;;;;;5092514;27;45491;-75
2022/09/07 14:15:08;;;;;;;;;1.00;1.00;;;;;;;;5090224;27;47462;-76
2022/09/07 14:17:34;;;;;;;;;1.00;1.00;;;;;;;;5091966;27;45352;-76
2022/09/07 14:19:59;;;;;;;;;1.00;0.67;;;;;;;;5097632;27;45319;-75
2022/09/07 14:22:32;;;;;;;;;0.00;0.00;;;;;;;;5098147;27;45249;-75
2022/09/07 14:25:00;;;;;;;;;0.00;0.00;;;;;;;;5083237;27;46072;-76
2022/09/07 14:27:39;;;;;;;;;0.67;0.67;;;;;;;;5098058;27;45547;-76
2022/09/07 14:30:22;;;;;;;;;0.00;0.00;;;;;;;;5097939;27;45306;-76
2022/09/07 14:32:49;;;;;;;;;0.67;0.67;;;;;;;;5098003;27;45340;-75
2022/09/07 14:35:15;;;;;;;;;0.00;0.00;;;;;;;;5097060;27;45339;-76
2022/09/07 14:37:41;;;;;;;;;0.33;0.33;;;;;;;;5077447;28;45777;-75
2022/09/07 14:40:12;;;;;;;;;1.33;0.33;;;;;;;;5095102;27;45417;-75
2022/09/07 14:42:40;;;;;;;;;1.67;0.00;;;;;;;;5097600;27;45457;-76
2022/09/07 14:45:20;;;;;;;;;0.67;0.67;;;;;;;;5097280;27;47429;-75
2022/09/07 14:47:47;;;;;;;;;1.00;0.00;;;;;;;;5069614;27;45334;-75
2022/09/07 14:50:15;;;;;;;;;0.33;0.33;;;;;;;;5097829;27;45393;-76
2022/09/07 14:52:40;;;;;;;;;2.00;0.00;;;;;;;;5097358;27;45575;-75
2022/09/07 14:55:24;;;;;;;;;0.67;0.00;;;;;;;;5090395;27;45319;-75
2022/09/07 14:58:06;;;;;;;;;0.67;0.67;;;;;;;;5097167;27;45415;-75